createdAt,value
2022-09-15T00:00:40.944Z,81.09
2022-09-15T00:02:44.125Z,80.53
2022-09-15T00:04:46.893Z,81.42
2022-09-15T00:06:49.659Z,81.56
2022-09-15T00:08:54.404Z,81.40
2022-09-15T00:11:03.337Z,81.99
2022-09-15T00:13:06.188Z,81.91
2022-09-15T00:15:09.746Z,82.29
2022-09-15T00:17:12.563Z,82.45
2022-09-15T00:19:15.392Z,82.68
2022-09-15T00:21:20.501Z,83.12
2022-09-15T00:23:23.265Z,83.62
2022-09-15T00:25:27.469Z,83.61
2022-09-15T00:27:30.302Z,84.12
2022-09-15T00:29:33.125Z,84.46
2022-09-15T00:31:35.944Z,83.84
2022-09-15T00:33:39.073Z,83.79
2022-09-15T00:35:44.273Z,83.72
2022-09-15T00:37:46.964Z,84.38
2022-09-15T00:39:50.568Z,84.56
2022-09-15T00:41:54.748Z,84.03
2022-09-15T00:43:59.931Z,83.63
2022-09-15T00:46:02.717Z,83.67
2022-09-15T00:48:07.160Z,83.08
2022-09-15T00:50:13.798Z,83.37
2022-09-15T00:52:21.756Z,83.97
2022-09-15T00:54:30.040Z,83.92
2022-09-15T00:56:34.868Z,83.91
2022-09-15T00:58:58.252Z,84.08
2022-09-15T01:01:03.697Z,84.04
2022-09-15T01:03:06.562Z,84.43
2022-09-15T01:05:12.054Z,83.93
2022-09-15T01:07:19.910Z,84.27
2022-09-15T01:09:29.410Z,84.25
2022-09-15T01:11:33.035Z,83.95
2022-09-15T01:13:35.760Z,84.00
2022-09-15T01:15:49.113Z,83.25
2022-09-15T01:18:06.798Z,83.26
2022-09-15T01:20:34.507Z,83.81
2022-09-15T01:22:42.704Z,84.40
2022-09-15T01:24:59.194Z,84.36
2022-09-15T01:27:30.921Z,84.23
2022-09-15T01:29:57.411Z,84.17
2022-09-15T01:32:25.606Z,84.00
2022-09-15T01:34:34.667Z,83.97
2022-09-15T01:36:43.927Z,83.69
2022-09-15T01:38:55.446Z,83.86
2022-09-15T01:41:03.043Z,83.52
2022-09-15T01:43:07.560Z,83.57
2022-09-15T01:45:13.558Z,83.68
2022-09-15T01:47:20.180Z,83.70
2022-09-15T01:49:26.999Z,83.45
2022-09-15T01:51:32.556Z,83.25
2022-09-15T01:53:35.967Z,83.28
2022-09-15T01:55:44.084Z,83.26
2022-09-15T01:57:46.959Z,82.99
2022-09-15T01:59:50.424Z,83.13
2022-09-15T02:02:00.383Z,83.02
2022-09-15T02:04:08.875Z,82.83
2022-09-15T02:06:17.702Z,82.64
2022-09-15T02:08:28.438Z,83.29
2022-09-15T02:10:36.774Z,82.57
2022-09-15T02:12:47.913Z,82.49
2022-09-15T02:14:58.238Z,82.84
2022-09-15T02:17:03.519Z,83.30
2022-09-15T02:19:18.149Z,84.02
2022-09-15T02:21:27.935Z,84.18
2022-09-15T02:23:36.746Z,84.04
2022-09-15T02:25:43.388Z,83.51
2022-09-15T02:27:51.015Z,83.50
2022-09-15T02:29:57.204Z,83.37
2022-09-15T02:32:07.241Z,83.61
2022-09-15T02:34:14.773Z,83.19
2022-09-15T02:36:20.639Z,83.52
2022-09-15T02:38:23.660Z,83.28
2022-09-15T02:40:28.579Z,83.01
2022-09-15T02:42:33.234Z,83.12
2022-09-15T02:44:35.852Z,83.44
2022-09-15T02:46:39.136Z,83.61
2022-09-15T02:48:43.331Z,83.49
2022-09-15T02:50:46.047Z,83.18
2022-09-15T02:52:48.880Z,82.93
2022-09-15T02:54:51.627Z,82.39
2022-09-15T02:56:54.384Z,83.08
2022-09-15T02:58:57.199Z,82.87
2022-09-15T03:01:01.742Z,82.89
2022-09-15T03:03:04.798Z,82.96
2022-09-15T03:05:10.550Z,82.95
2022-09-15T03:07:13.312Z,83.34
2022-09-15T03:09:16.093Z,82.89
2022-09-15T03:11:20.353Z,83.15
2022-09-15T03:13:23.238Z,82.52
2022-09-15T03:15:27.341Z,82.70
2022-09-15T03:17:30.177Z,83.39
2022-09-15T03:19:32.915Z,83.49
2022-09-15T03:21:37.718Z,83.01
2022-09-15T03:23:41.345Z,83.34
2022-09-15T03:25:46.711Z,83.49
2022-09-15T03:27:49.491Z,83.32
2022-09-15T03:29:52.245Z,83.73
2022-09-15T03:31:55.461Z,83.65
2022-09-15T03:33:58.273Z,84.24
2022-09-15T03:36:01.471Z,83.97
2022-09-15T03:38:05.657Z,84.64
2022-09-15T03:40:10.403Z,84.42
2022-09-15T03:42:14.069Z,84.49
2022-09-15T03:44:16.900Z,84.74
2022-09-15T03:46:20.348Z,84.91
2022-09-15T03:48:23.622Z,84.39
2022-09-15T03:50:26.489Z,84.74
2022-09-15T03:52:32.422Z,84.27
2022-09-15T03:54:36.609Z,84.63
2022-09-15T03:56:39.420Z,84.50
2022-09-15T03:58:42.251Z,84.95
2022-09-15T04:00:45.697Z,84.83
2022-09-15T04:02:48.624Z,84.66
2022-09-15T04:04:51.431Z,85.06
2022-09-15T04:06:54.200Z,84.92
2022-09-15T04:08:57.898Z,84.63
2022-09-15T04:11:05.625Z,84.76
2022-09-15T04:13:08.770Z,84.34
2022-09-15T04:15:12.016Z,85.02
2022-09-15T04:17:15.482Z,83.90
2022-09-15T04:19:18.357Z,83.88
2022-09-15T04:21:22.966Z,84.07
2022-09-15T04:23:25.742Z,83.90
2022-09-15T04:25:29.379Z,81.94
2022-09-15T04:27:35.521Z,82.76
2022-09-15T04:29:38.238Z,81.59
2022-09-15T04:31:41.149Z,81.52
2022-09-15T04:33:44.843Z,81.86
2022-09-15T04:35:48.173Z,82.07
2022-09-15T04:37:51.647Z,81.65
2022-09-15T04:39:54.676Z,81.93
2022-09-15T04:41:57.582Z,82.19
2022-09-15T04:44:02.093Z,81.44
2022-09-15T04:46:05.226Z,81.52
2022-09-15T04:48:07.997Z,80.66
2022-09-15T04:50:11.129Z,80.41
2022-09-15T04:52:13.944Z,81.00
2022-09-15T04:54:16.687Z,81.49
2022-09-15T04:56:21.293Z,80.82
2022-09-15T04:58:23.858Z,81.41
2022-09-15T05:00:27.950Z,82.04
2022-09-15T05:02:30.810Z,81.58
2022-09-15T05:04:34.838Z,81.08
2022-09-15T05:06:38.913Z,80.26
2022-09-15T05:08:42.130Z,80.17
2022-09-15T05:10:45.140Z,81.14
2022-09-15T05:12:47.887Z,80.87
2022-09-15T05:14:50.710Z,80.33
2022-09-15T05:16:54.815Z,81.38
2022-09-15T05:18:59.638Z,80.22
2022-09-15T05:21:03.882Z,80.51
2022-09-15T05:23:06.622Z,80.33
2022-09-15T05:25:10.118Z,80.70
2022-09-15T05:27:12.809Z,80.32
2022-09-15T05:29:15.546Z,79.95
2022-09-15T05:31:19.804Z,78.96
2022-09-15T05:33:24.536Z,79.10
2022-09-15T05:35:27.310Z,79.20
2022-09-15T05:37:30.053Z,78.90
2022-09-15T05:39:32.883Z,79.00
2022-09-15T05:41:35.670Z,79.95
2022-09-15T05:43:40.177Z,79.82
2022-09-15T05:45:43.125Z,80.99
2022-09-15T05:47:45.905Z,81.31
2022-09-15T05:49:50.116Z,81.34
2022-09-15T05:51:52.879Z,81.67
2022-09-15T05:53:55.715Z,81.93
2022-09-15T05:55:59.734Z,81.80
2022-09-15T05:58:02.460Z,81.27
2022-09-15T06:00:06.196Z,80.81
2022-09-15T06:02:15.187Z,81.15
2022-09-15T06:04:17.972Z,80.02
2022-09-15T06:06:23.121Z,79.35
2022-09-15T06:08:25.914Z,80.13
2022-09-15T06:10:28.686Z,80.04
2022-09-15T06:12:31.624Z,81.02
2022-09-15T06:14:34.421Z,80.19
2022-09-15T06:16:37.252Z,78.84
2022-09-15T06:18:41.336Z,79.74
2022-09-15T06:20:44.115Z,80.07
2022-09-15T06:22:48.388Z,80.32
2022-09-15T06:24:52.233Z,80.44
2022-09-15T06:26:54.996Z,79.47
2022-09-15T06:28:59.566Z,79.44
2022-09-15T06:31:02.418Z,78.92
2022-09-15T06:33:16.482Z,79.13
2022-09-15T06:35:19.628Z,77.93
2022-09-15T06:37:22.480Z,78.08
2022-09-15T06:39:26.673Z,78.36
2022-09-15T06:41:42.652Z,78.95
2022-09-15T06:43:53.963Z,78.42
2022-09-15T06:46:03.869Z,79.54
2022-09-15T06:48:23.529Z,78.98
2022-09-15T06:50:31.029Z,80.02
2022-09-15T06:52:34.000Z,80.02
2022-09-15T06:54:38.643Z,80.50
2022-09-15T06:56:41.478Z,81.45
2022-09-15T06:58:45.803Z,80.00
2022-09-15T07:00:48.737Z,79.19
2022-09-15T07:02:51.700Z,78.87
2022-09-15T07:04:54.662Z,78.05
2022-09-15T07:06:57.619Z,79.01
2022-09-15T07:09:01.685Z,78.42
2022-09-15T07:11:08.404Z,78.38
2022-09-15T07:13:11.499Z,78.05
2022-09-15T07:15:14.353Z,76.37
2022-09-15T07:17:17.147Z,76.43
2022-09-15T07:19:19.891Z,76.52
2022-09-15T07:21:22.653Z,76.27
2022-09-15T07:23:25.524Z,76.19
2022-09-15T07:25:28.471Z,76.68
2022-09-15T07:27:32.670Z,76.46
2022-09-15T07:29:37.820Z,77.31
2022-09-15T07:31:41.066Z,78.72
2022-09-15T07:33:44.052Z,77.77
2022-09-15T07:35:46.916Z,77.90
2022-09-15T07:37:49.798Z,77.27
2022-09-15T07:39:52.572Z,77.45
2022-09-15T07:41:55.355Z,78.51
2022-09-15T07:44:01.282Z,76.72
2022-09-15T07:46:04.856Z,76.97
2022-09-15T07:48:07.669Z,77.21
2022-09-15T07:50:10.785Z,77.55
2022-09-15T07:52:13.557Z,77.58
2022-09-15T07:54:21.086Z,76.76
2022-09-15T07:56:25.640Z,76.10
2022-09-15T07:58:28.496Z,75.48
2022-09-15T08:00:32.851Z,76.48
2022-09-15T08:02:35.638Z,76.60
2022-09-15T08:04:38.404Z,76.63
2022-09-15T08:06:41.181Z,76.75
2022-09-15T08:08:44.880Z,76.70
2022-09-15T08:10:47.660Z,76.38
2022-09-15T08:12:50.830Z,76.40
2022-09-15T08:14:53.575Z,76.75
2022-09-15T08:17:00.925Z,76.93
2022-09-15T08:19:03.782Z,76.21
2022-09-15T08:21:07.792Z,76.75
2022-09-15T08:23:11.179Z,76.20
2022-09-15T08:25:13.940Z,76.44
2022-09-15T08:27:16.656Z,76.55
2022-09-15T08:29:20.010Z,77.35
2022-09-15T08:31:24.848Z,77.55
2022-09-15T08:33:30.056Z,76.84
2022-09-15T08:35:34.309Z,76.00
2022-09-15T08:37:37.086Z,74.47
2022-09-15T08:39:39.887Z,75.33
2022-09-15T08:41:45.027Z,76.11
2022-09-15T08:43:54.733Z,76.65
2022-09-15T08:46:04.629Z,76.14
2022-09-15T08:48:08.446Z,75.74
2022-09-15T08:50:21.586Z,73.39
2022-09-15T08:52:29.552Z,73.91
2022-09-15T08:54:34.790Z,74.26
2022-09-15T08:56:38.056Z,72.32
2022-09-15T08:58:40.819Z,72.92
2022-09-15T09:00:46.503Z,73.57
2022-09-15T09:03:06.305Z,72.81
2022-09-15T09:05:34.231Z,72.99
2022-09-15T09:07:59.684Z,73.72
2022-09-15T09:10:13.547Z,73.50
2022-09-15T09:12:40.988Z,73.18
2022-09-15T09:14:57.895Z,72.18
2022-09-15T09:17:17.002Z,72.89
2022-09-15T09:19:38.882Z,73.17
2022-09-15T09:21:48.079Z,72.16
2022-09-15T09:23:56.865Z,71.55
2022-09-15T09:26:01.949Z,72.08
2022-09-15T09:28:07.664Z,72.16
2022-09-15T09:30:17.412Z,70.39
2022-09-15T09:32:24.338Z,71.04
2022-09-15T09:34:32.738Z,70.67
2022-09-15T09:36:35.561Z,70.55
2022-09-15T09:38:41.682Z,69.69
2022-09-15T09:40:44.894Z,70.23
2022-09-15T09:42:48.102Z,70.65
2022-09-15T09:44:50.915Z,71.53
2022-09-15T09:46:53.720Z,72.58
2022-09-15T09:49:02.772Z,72.24
2022-09-15T09:51:05.779Z,72.28
2022-09-15T09:53:26.751Z,71.87
2022-09-15T09:55:30.952Z,71.45
2022-09-15T09:57:40.661Z,71.31
2022-09-15T09:59:45.362Z,69.10
2022-09-15T10:02:05.877Z,68.89
2022-09-15T10:04:14.696Z,68.37
2022-09-15T10:06:22.085Z,69.42
2022-09-15T10:08:24.949Z,68.91
2022-09-15T10:10:32.142Z,68.54
2022-09-15T10:12:42.727Z,66.63
2022-09-15T10:14:52.489Z,66.85
2022-09-15T10:17:01.366Z,66.49
2022-09-15T10:19:04.263Z,65.96
2022-09-15T10:21:10.066Z,65.89
2022-09-15T10:23:26.425Z,65.50
2022-09-15T10:25:49.636Z,66.13
2022-09-15T10:28:12.464Z,67.29
2022-09-15T10:30:20.179Z,65.75
2022-09-15T10:32:29.208Z,63.88
2022-09-15T10:34:32.752Z,64.57
2022-09-15T10:36:35.526Z,64.52
2022-09-15T10:38:43.098Z,63.35
2022-09-15T10:40:53.880Z,62.70
2022-09-15T10:43:02.983Z,63.46
2022-09-15T10:45:19.335Z,63.37
2022-09-15T10:47:32.482Z,64.06
2022-09-15T10:49:52.468Z,63.68
2022-09-15T10:52:07.999Z,63.01
2022-09-15T10:54:34.111Z,62.25
2022-09-15T10:56:41.923Z,62.24
2022-09-15T10:58:58.545Z,62.50
2022-09-15T11:01:25.521Z,60.69
2022-09-15T11:03:41.096Z,60.40
2022-09-15T11:05:54.176Z,60.36
2022-09-15T11:08:14.015Z,61.04
2022-09-15T11:10:26.380Z,61.12
2022-09-15T11:12:43.475Z,61.39
2022-09-15T11:15:05.973Z,59.89
2022-09-15T11:17:24.696Z,59.36
2022-09-15T11:19:57.671Z,58.14
2022-09-15T11:22:04.958Z,59.34
2022-09-15T11:24:27.559Z,59.93
2022-09-15T11:26:37.870Z,59.22
2022-09-15T11:28:47.303Z,59.24
2022-09-15T11:30:57.122Z,57.90
2022-09-15T11:33:04.356Z,60.97
2022-09-15T11:35:31.148Z,58.17
2022-09-15T11:37:40.918Z,59.39
2022-09-15T11:39:49.735Z,60.19
2022-09-15T11:41:57.429Z,59.62
2022-09-15T11:44:16.829Z,59.92
2022-09-15T11:46:26.714Z,60.74
2022-09-15T11:48:37.155Z,60.24
2022-09-15T11:50:45.128Z,59.70
2022-09-15T11:52:54.178Z,59.91
2022-09-15T11:55:01.977Z,59.37
2022-09-15T11:57:05.436Z,58.12
2022-09-15T11:59:19.437Z,58.21
2022-09-15T12:01:25.492Z,56.54
2022-09-15T12:03:36.289Z,57.98
2022-09-15T12:05:43.660Z,57.32
2022-09-15T12:07:51.348Z,57.49
2022-09-15T12:09:54.142Z,57.07
2022-09-15T12:12:00.825Z,57.57
2022-09-15T12:14:05.747Z,57.64
2022-09-15T12:16:09.743Z,56.99
2022-09-15T12:18:38.116Z,57.42
2022-09-15T12:20:49.845Z,57.68
2022-09-15T12:22:59.066Z,57.44
2022-09-15T12:25:06.667Z,56.92
2022-09-15T12:27:16.729Z,54.94
2022-09-15T12:29:42.187Z,54.43
2022-09-15T12:31:46.911Z,55.54
2022-09-15T12:33:55.588Z,56.18
2022-09-15T12:36:52.883Z,55.05
2022-09-15T12:38:55.898Z,54.13
2022-09-15T12:41:00.042Z,52.63
2022-09-15T12:43:04.491Z,53.67
2022-09-15T12:45:08.559Z,55.38
2022-09-15T12:47:23.128Z,56.29
2022-09-15T12:49:31.508Z,58.55
2022-09-15T12:51:35.608Z,56.71
2022-09-15T12:53:49.819Z,57.22
2022-09-15T12:55:55.380Z,56.54
2022-09-15T12:58:00.609Z,55.14
2022-09-15T13:00:33.623Z,55.51
2022-09-15T13:02:44.476Z,53.80
2022-09-15T13:04:55.305Z,54.87
2022-09-15T13:07:32.083Z,54.35
2022-09-15T13:09:45.527Z,54.00
2022-09-15T13:11:51.220Z,55.13
2022-09-15T13:13:58.744Z,53.80
2022-09-15T13:16:03.322Z,53.02
2022-09-15T13:18:07.041Z,52.24
2022-09-15T13:20:16.694Z,54.07
2022-09-15T13:22:27.211Z,53.92
2022-09-15T13:24:48.444Z,52.82
2022-09-15T13:26:55.639Z,51.14
2022-09-15T13:28:59.035Z,51.91
2022-09-15T13:31:18.832Z,52.56
2022-09-15T13:36:10.988Z,53.48
2022-09-15T13:38:47.248Z,53.82
2022-09-15T13:41:23.395Z,52.21
2022-09-15T13:43:50.369Z,53.83
2022-09-15T13:46:06.388Z,53.22
2022-09-15T13:48:30.905Z,53.10
2022-09-15T13:50:38.225Z,50.99
2022-09-15T13:52:54.811Z,50.71
2022-09-15T13:55:19.326Z,49.85
2022-09-15T13:58:54.680Z,47.23
2022-09-15T13:59:46.255Z,49.29
2022-09-15T14:01:49.191Z,48.98
2022-09-15T14:03:54.496Z,48.49
2022-09-15T14:05:57.732Z,48.91
2022-09-15T14:08:05.105Z,48.52
2022-09-15T14:10:19.795Z,50.72
2022-09-15T14:12:24.042Z,50.41
2022-09-15T14:14:38.946Z,51.06
2022-09-15T14:16:50.814Z,49.71
2022-09-15T14:18:55.179Z,48.85
2022-09-15T14:21:00.436Z,50.11
2022-09-15T14:23:03.303Z,51.05
2022-09-15T14:25:09.210Z,51.67
2022-09-15T14:27:13.283Z,52.02
2022-09-15T14:29:21.351Z,51.06
2022-09-15T14:31:33.218Z,51.87
2022-09-15T14:33:38.881Z,52.17
2022-09-15T14:35:42.038Z,52.21
2022-09-15T14:37:49.749Z,52.14
2022-09-15T14:39:56.572Z,48.13
2022-09-15T14:46:44.174Z,48.71
2022-09-15T14:48:47.034Z,49.03
2022-09-15T14:51:01.158Z,48.35
2022-09-15T14:53:07.535Z,47.09
2022-09-15T14:55:15.475Z,45.58
2022-09-15T14:57:21.927Z,46.44
2022-09-15T14:59:32.735Z,48.48
2022-09-15T15:01:38.708Z,48.43
2022-09-15T15:03:49.010Z,48.42
2022-09-15T15:06:07.464Z,48.50
2022-09-15T15:08:27.407Z,49.22
2022-09-15T15:10:35.629Z,49.34
2022-09-15T15:12:43.122Z,48.70
2022-09-15T15:14:47.582Z,49.32
2022-09-15T15:16:51.377Z,49.77
2022-09-15T15:18:57.003Z,48.66
2022-09-15T15:21:00.180Z,46.40
2022-09-15T15:23:17.768Z,45.87
2022-09-15T15:25:27.505Z,46.87
2022-09-15T15:27:43.748Z,47.43
2022-09-15T15:29:47.890Z,47.56
2022-09-15T15:31:50.715Z,48.27
2022-09-15T15:33:57.061Z,49.04
2022-09-15T15:36:07.971Z,48.29
2022-09-15T15:38:17.393Z,48.12
2022-09-15T15:40:23.135Z,48.48
2022-09-15T15:42:28.409Z,48.93
2022-09-15T15:44:32.138Z,49.44
2022-09-15T15:46:54.417Z,49.08
2022-09-15T15:48:57.201Z,47.62
2022-09-15T15:51:00.467Z,49.22
2022-09-15T15:53:06.894Z,48.26
2022-09-15T15:55:14.500Z,48.44
2022-09-15T15:57:25.679Z,48.62
2022-09-15T15:59:28.460Z,48.63
2022-09-15T16:01:31.293Z,47.98
2022-09-15T16:03:35.398Z,48.51
2022-09-15T16:05:39.021Z,48.82
2022-09-15T16:07:42.393Z,48.96
2022-09-15T16:09:45.739Z,49.58
2022-09-15T16:11:48.717Z,48.74
2022-09-15T16:13:51.756Z,49.52
2022-09-15T16:15:56.695Z,49.95
2022-09-15T16:17:59.590Z,50.88
2022-09-15T16:20:03.792Z,50.81
2022-09-15T16:22:06.830Z,51.31
2022-09-15T16:24:14.266Z,50.63
2022-09-15T16:26:21.388Z,50.79
2022-09-15T16:28:24.204Z,49.78
2022-09-15T16:30:27.021Z,48.57
2022-09-15T16:32:31.382Z,49.18
2022-09-15T16:34:34.228Z,49.37
2022-09-15T16:36:38.533Z,50.40
2022-09-15T16:38:42.963Z,51.11
2022-09-15T16:40:45.628Z,50.58
2022-09-15T16:42:48.765Z,51.33
2022-09-15T16:44:51.574Z,51.58
2022-09-15T16:46:54.392Z,51.28
2022-09-15T16:48:57.235Z,51.57
2022-09-15T16:51:23.005Z,52.01
2022-09-15T16:53:26.538Z,51.87
2022-09-15T16:55:35.131Z,51.74
2022-09-15T16:57:38.011Z,52.55
2022-09-15T16:59:40.808Z,52.46
2022-09-15T17:01:43.770Z,53.26
2022-09-15T17:03:46.679Z,53.86
2022-09-15T17:05:51.030Z,55.07
2022-09-15T17:07:53.834Z,55.99
2022-09-15T17:09:58.007Z,56.98
2022-09-15T17:12:00.811Z,57.02
2022-09-15T17:14:03.576Z,56.64
2022-09-15T17:16:06.882Z,56.82
2022-09-15T17:18:13.316Z,56.24
2022-09-15T17:20:16.682Z,56.08
2022-09-15T17:22:19.514Z,56.19
2022-09-15T17:24:22.507Z,56.37
2022-09-15T17:26:31.350Z,55.83
2022-09-15T17:28:36.498Z,56.67
2022-09-15T17:30:39.259Z,56.96
2022-09-15T17:32:42.156Z,57.41
2022-09-15T17:34:46.110Z,56.82
2022-09-15T17:36:49.160Z,56.38
2022-09-15T17:38:52.052Z,56.19
2022-09-15T17:40:56.180Z,56.30
2022-09-15T17:43:00.638Z,56.13
2022-09-15T17:45:03.345Z,56.21
2022-09-15T17:47:06.331Z,57.02
2022-09-15T17:49:09.109Z,56.90
2022-09-15T17:51:16.964Z,56.83
2022-09-15T17:53:22.561Z,57.64
2022-09-15T17:55:28.677Z,57.89
2022-09-15T17:57:31.633Z,58.82
2022-09-15T17:59:35.863Z,59.28
2022-09-15T18:01:38.731Z,59.61
2022-09-15T18:03:44.285Z,59.90
2022-09-15T18:05:47.090Z,61.47
2022-09-15T18:07:50.161Z,62.19
2022-09-15T18:09:52.944Z,62.51
2022-09-15T18:11:55.694Z,62.74
2022-09-15T18:13:58.556Z,63.19
2022-09-15T18:16:06.646Z,63.88
2022-09-15T18:18:14.217Z,65.29
2022-09-15T18:20:19.062Z,65.40
2022-09-15T18:22:24.107Z,65.20
2022-09-15T18:24:26.884Z,64.83
2022-09-15T18:26:29.658Z,64.25
2022-09-15T18:28:32.411Z,63.98
2022-09-15T18:30:40.428Z,63.95
2022-09-15T18:32:44.860Z,64.81
2022-09-15T18:34:49.001Z,65.50
2022-09-15T18:36:51.790Z,65.41
2022-09-15T18:38:54.634Z,65.42
2022-09-15T18:40:58.175Z,65.10
2022-09-15T18:43:01.008Z,64.83
2022-09-15T18:45:03.985Z,64.88
2022-09-15T18:47:06.753Z,65.37
2022-09-15T18:49:10.848Z,65.42
2022-09-15T18:51:19.713Z,65.21
2022-09-15T18:53:27.153Z,65.82
2022-09-15T18:55:30.041Z,66.17
2022-09-15T18:57:35.224Z,65.63
2022-09-15T18:59:38.898Z,65.54
2022-09-15T19:01:41.783Z,65.61
2022-09-15T19:03:44.808Z,65.63
2022-09-15T19:05:49.000Z,65.98
2022-09-15T19:07:51.795Z,65.94
2022-09-15T19:09:56.631Z,66.67
2022-09-15T19:11:59.746Z,67.26
2022-09-15T19:14:02.519Z,67.26
2022-09-15T19:16:06.418Z,67.29
2022-09-15T19:18:09.212Z,66.60
2022-09-15T19:20:14.886Z,66.08
2022-09-15T19:22:19.065Z,66.02
2022-09-15T19:24:21.778Z,66.49
2022-09-15T19:26:28.575Z,66.08
2022-09-15T19:28:31.949Z,66.21
2022-09-15T19:30:34.774Z,65.60
2022-09-15T19:32:38.192Z,65.78
2022-09-15T19:34:42.139Z,65.91
2022-09-15T19:36:44.952Z,65.83
2022-09-15T19:38:49.027Z,66.30
2022-09-15T19:40:51.832Z,66.13
2022-09-15T19:42:54.551Z,66.35
2022-09-15T19:44:57.300Z,66.30
2022-09-15T19:47:00.205Z,65.62
2022-09-15T19:49:03.948Z,65.88
2022-09-15T19:51:07.535Z,65.83
2022-09-15T19:53:10.284Z,66.15
2022-09-15T19:55:14.477Z,65.43
2022-09-15T19:57:17.296Z,66.15
2022-09-15T19:59:20.937Z,64.86
2022-09-15T20:01:24.401Z,63.75
2022-09-15T20:03:28.427Z,63.54
2022-09-15T20:05:31.222Z,63.68
2022-09-15T20:07:34.035Z,63.60
2022-09-15T20:09:36.833Z,63.78
2022-09-15T20:11:40.873Z,62.91
2022-09-15T20:13:43.993Z,62.67
2022-09-15T20:15:56.438Z,62.83
2022-09-15T20:17:59.146Z,61.16
2022-09-15T20:20:01.982Z,62.00
2022-09-15T20:22:05.068Z,62.77
2022-09-15T20:24:08.345Z,61.71
2022-09-15T20:26:13.246Z,60.80
2022-09-15T20:28:17.329Z,60.86
2022-09-15T20:30:20.756Z,60.96
2022-09-15T20:32:28.152Z,60.99
2022-09-15T20:34:31.340Z,60.53
2022-09-15T20:36:36.894Z,58.40
2022-09-15T20:38:40.562Z,57.58
2022-09-15T20:40:43.375Z,56.20
2022-09-15T20:42:47.582Z,56.28
2022-09-15T20:44:51.715Z,56.34
2022-09-15T20:46:54.820Z,56.65
2022-09-15T20:48:57.534Z,56.96
2022-09-15T20:51:04.013Z,56.97
2022-09-15T20:53:06.751Z,57.27
2022-09-15T20:55:10.374Z,57.36
2022-09-15T20:57:13.295Z,58.22
2022-09-15T20:59:16.190Z,58.13
2022-09-15T21:01:23.049Z,58.60
2022-09-15T21:03:26.137Z,58.89
2022-09-15T21:05:28.894Z,58.78
2022-09-15T21:07:31.746Z,58.87
2022-09-15T21:09:34.560Z,59.23
2022-09-15T21:11:37.438Z,58.89
2022-09-15T21:13:41.337Z,59.23
2022-09-15T21:15:44.110Z,59.40
2022-09-15T21:17:48.223Z,59.42
2022-09-15T21:19:51.006Z,60.00
2022-09-15T21:21:54.858Z,59.18
2022-09-15T21:24:01.192Z,60.46
2022-09-15T21:26:06.261Z,58.48
2022-09-15T21:28:09.025Z,58.51
2022-09-15T21:30:12.760Z,58.45
2022-09-15T21:32:16.046Z,57.96
2022-09-15T21:34:20.347Z,57.74
2022-09-15T21:36:24.837Z,58.29
2022-09-15T21:38:27.504Z,58.34
2022-09-15T21:40:30.417Z,59.29
2022-09-15T21:42:33.481Z,59.28
2022-09-15T21:44:36.428Z,59.69
2022-09-15T21:46:39.353Z,59.79
2022-09-15T21:48:42.216Z,59.50
2022-09-15T21:50:51.056Z,59.25
2022-09-15T21:52:53.763Z,59.44
2022-09-15T21:54:56.508Z,59.18
2022-09-15T21:56:59.278Z,59.28
2022-09-15T21:59:03.629Z,57.96
2022-09-15T22:01:12.268Z,58.28
2022-09-15T22:03:15.070Z,57.88
2022-09-15T22:05:17.827Z,58.66
2022-09-15T22:07:23.062Z,58.71
2022-09-15T22:09:26.265Z,58.95
2022-09-15T22:11:29.145Z,59.54
2022-09-15T22:13:31.954Z,59.33
2022-09-15T22:15:34.767Z,59.13
2022-09-15T22:17:37.543Z,59.04
2022-09-15T22:19:40.293Z,59.13
2022-09-15T22:21:43.044Z,59.45
2022-09-15T22:23:48.462Z,59.27
2022-09-15T22:25:51.293Z,59.19
2022-09-15T22:27:54.092Z,59.16
2022-09-15T22:29:56.819Z,59.54
2022-09-15T22:31:59.635Z,59.02
2022-09-15T22:34:02.826Z,58.92
2022-09-15T22:36:06.174Z,59.10
2022-09-15T22:38:08.970Z,59.47
2022-09-15T22:40:13.325Z,59.54
2022-09-15T22:42:16.043Z,58.95
2022-09-15T22:44:20.774Z,59.13
2022-09-15T22:46:23.766Z,59.17
2022-09-15T22:48:26.674Z,59.42
2022-09-15T22:50:29.487Z,59.21
2022-09-15T22:52:32.240Z,59.52
2022-09-15T22:54:35.318Z,58.73
2022-09-15T22:56:39.432Z,58.50
2022-09-15T22:58:44.163Z,57.83
2022-09-15T23:00:46.949Z,58.07
2022-09-15T23:02:49.991Z,57.67
2022-09-15T23:04:54.202Z,55.61
2022-09-15T23:06:56.959Z,55.63
2022-09-15T23:09:01.515Z,56.70
2022-09-15T23:11:05.640Z,57.40
2022-09-15T23:13:09.926Z,57.61
2022-09-15T23:15:12.739Z,57.68
2022-09-15T23:17:15.543Z,57.03
2022-09-15T23:19:18.347Z,57.13
2022-09-15T23:21:21.537Z,56.99
2022-09-15T23:23:24.506Z,57.83
2022-09-15T23:25:27.242Z,58.07
2022-09-15T23:27:30.036Z,58.11
2022-09-15T23:29:34.162Z,57.70
2022-09-15T23:31:37.058Z,58.50
2022-09-15T23:33:40.522Z,58.47
2022-09-15T23:35:43.262Z,58.53
2022-09-15T23:37:46.079Z,58.78
2022-09-15T23:39:48.915Z,59.19
2022-09-15T23:41:51.709Z,57.19
2022-09-15T23:43:55.470Z,57.14
2022-09-15T23:45:59.814Z,57.06
2022-09-15T23:48:02.987Z,57.29
2022-09-15T23:50:06.613Z,56.69
2022-09-15T23:52:09.338Z,54.52
2022-09-15T23:54:12.263Z,55.26
2022-09-15T23:56:15.107Z,56.13
2022-09-15T23:58:19.251Z,55.60
